createdAt,value
2024-02-26T00:00:46.422Z,621.00
2024-02-26T00:01:46.443Z,623.00
2024-02-26T00:02:46.450Z,624.00
2024-02-26T00:03:46.458Z,622.00
2024-02-26T00:04:46.459Z,624.00
2024-02-26T00:58:03.156Z,627.00
2024-02-26T00:58:46.746Z,647.00
2024-02-26T00:59:46.803Z,832.00
2024-02-26T01:00:46.939Z,1113.00
2024-02-26T01:01:46.923Z,1414.00
2024-02-26T01:02:47.010Z,1707.00
2024-02-26T01:03:47.182Z,1652.00
2024-02-26T01:04:47.125Z,1485.00
2024-02-26T01:05:47.115Z,1346.00
2024-02-26T01:06:47.099Z,1238.00
2024-02-26T01:07:47.344Z,1133.00
2024-02-26T01:08:47.066Z,1052.00
2024-02-26T01:09:47.051Z,984.00
2024-02-26T01:10:47.094Z,927.00
2024-02-26T01:11:47.065Z,882.00
2024-02-26T01:12:47.085Z,837.00
2024-02-26T01:13:47.186Z,800.00
2024-02-26T01:14:47.098Z,751.00
2024-02-26T01:15:47.100Z,728.00
2024-02-26T01:16:47.105Z,700.00
2024-02-26T01:17:47.248Z,672.00
2024-02-26T01:18:47.206Z,658.00
2024-02-26T01:19:47.208Z,654.00
2024-02-26T01:20:47.141Z,646.00
2024-02-26T01:21:47.143Z,638.00
2024-02-26T01:22:47.152Z,634.00
2024-02-26T01:23:47.171Z,626.00
2024-02-26T01:24:47.170Z,620.00
2024-02-26T01:25:47.182Z,615.00
2024-02-26T01:26:47.248Z,613.00
2024-02-26T01:27:47.195Z,608.00
2024-02-26T01:28:47.193Z,604.00
2024-02-26T01:29:47.241Z,603.00
2024-02-26T01:30:47.231Z,601.00
2024-02-26T01:31:47.222Z,601.00
2024-02-26T01:32:47.345Z,602.00
2024-02-26T01:33:47.352Z,602.00
2024-02-26T01:34:47.310Z,600.00
2024-02-26T01:35:47.294Z,602.00
2024-02-26T01:36:47.268Z,600.00
2024-02-26T01:37:47.264Z,600.00
2024-02-26T01:38:47.320Z,602.00
2024-02-26T01:39:47.281Z,602.00
2024-02-26T01:40:47.291Z,600.00
2024-02-26T01:41:47.333Z,605.00
2024-02-26T01:42:47.304Z,600.00
2024-02-26T01:43:47.298Z,603.00
2024-02-26T01:44:47.336Z,602.00
2024-02-26T01:45:47.385Z,600.00
2024-02-26T01:46:47.332Z,603.00
2024-02-26T01:47:47.739Z,601.00
2024-02-26T01:48:47.488Z,605.00
2024-02-26T01:49:47.400Z,601.00
2024-02-26T01:50:47.409Z,603.00
2024-02-26T01:51:47.385Z,600.00
2024-02-26T01:52:47.412Z,604.00
2024-02-26T01:53:47.419Z,601.00
2024-02-26T01:54:47.386Z,600.00
2024-02-26T01:55:47.406Z,601.00
2024-02-26T01:56:47.430Z,603.00
2024-02-26T01:57:47.399Z,605.00
2024-02-26T01:58:47.408Z,603.00
2024-02-26T01:59:47.444Z,603.00
2024-02-26T02:00:47.471Z,600.00
2024-02-26T02:01:47.462Z,606.00
2024-02-26T02:02:47.452Z,604.00
2024-02-26T02:03:47.471Z,605.00
2024-02-26T02:04:47.425Z,603.00
2024-02-26T02:05:47.564Z,604.00
2024-02-26T02:06:47.658Z,603.00
2024-02-26T02:07:47.437Z,604.00
2024-02-26T02:08:47.485Z,602.00
2024-02-26T02:09:47.457Z,603.00
2024-02-26T02:10:47.496Z,607.00
2024-02-26T02:11:47.466Z,604.00
2024-02-26T02:12:47.462Z,605.00
2024-02-26T02:13:47.461Z,607.00
2024-02-26T02:14:47.532Z,603.00
2024-02-26T02:15:47.486Z,606.00
2024-02-26T02:16:47.486Z,604.00
2024-02-26T02:17:47.664Z,604.00
2024-02-26T02:18:47.544Z,608.00
2024-02-26T02:19:47.579Z,606.00
2024-02-26T02:20:47.542Z,607.00
2024-02-26T02:21:47.523Z,607.00
2024-02-26T02:22:47.566Z,606.00
2024-02-26T02:23:47.808Z,607.00
2024-02-26T02:24:47.531Z,608.00
2024-02-26T02:25:47.544Z,607.00
2024-02-26T02:26:47.568Z,608.00
2024-02-26T02:27:47.554Z,607.00
2024-02-26T02:28:47.560Z,610.00
2024-02-26T02:29:47.606Z,607.00
2024-02-26T02:30:47.591Z,608.00
2024-02-26T02:31:47.586Z,607.00
2024-02-26T02:32:47.649Z,610.00
2024-02-26T02:33:47.812Z,606.00
2024-02-26T02:34:47.663Z,607.00
2024-02-26T02:35:49.885Z,609.00
2024-02-26T02:36:47.641Z,609.00
2024-02-26T02:37:47.606Z,610.00
2024-02-26T02:38:47.635Z,609.00
2024-02-26T02:39:47.628Z,611.00
2024-02-26T02:40:47.607Z,613.00
2024-02-26T02:41:47.626Z,613.00
2024-02-26T02:42:47.613Z,614.00
2024-02-26T02:43:47.618Z,613.00
2024-02-26T02:44:47.641Z,616.00
2024-02-26T02:45:47.622Z,612.00
2024-02-26T02:46:47.620Z,613.00
2024-02-26T02:47:47.808Z,613.00
2024-02-26T02:48:47.749Z,615.00
2024-02-26T02:49:47.716Z,613.00
2024-02-26T02:50:47.674Z,619.00
2024-02-26T02:51:47.643Z,616.00
2024-02-26T02:52:47.641Z,617.00
2024-02-26T02:53:47.763Z,616.00
2024-02-26T02:54:47.638Z,617.00
2024-02-26T02:55:47.650Z,614.00
2024-02-26T02:56:47.708Z,616.00
2024-02-26T02:57:47.665Z,622.00
2024-02-26T02:58:47.658Z,618.00
2024-02-26T02:59:47.693Z,619.00
2024-02-26T03:00:47.709Z,618.00
2024-02-26T03:01:47.689Z,616.00
2024-02-26T03:02:47.703Z,623.00
2024-02-26T03:03:47.709Z,618.00
2024-02-26T03:04:47.719Z,614.00
2024-02-26T03:05:47.879Z,614.00
2024-02-26T03:06:47.787Z,619.00
2024-02-26T03:07:47.668Z,619.00
2024-02-26T03:08:47.677Z,622.00
2024-02-26T03:09:47.665Z,618.00
2024-02-26T03:10:47.781Z,616.00
2024-02-26T03:11:47.720Z,620.00
2024-02-26T03:12:47.669Z,622.00
2024-02-26T03:13:47.677Z,618.00
2024-02-26T03:14:47.687Z,621.00
2024-02-26T03:15:47.694Z,619.00
2024-02-26T03:16:47.685Z,619.00
2024-02-26T03:17:47.826Z,620.00
2024-02-26T03:18:47.798Z,619.00
2024-02-26T03:19:47.758Z,623.00
2024-02-26T03:20:47.716Z,623.00
2024-02-26T03:21:48.468Z,618.00
2024-02-26T03:22:47.698Z,622.00
2024-02-26T03:23:47.707Z,622.00
2024-02-26T03:24:47.706Z,624.00
2024-02-26T03:25:47.722Z,623.00
2024-02-26T03:26:47.725Z,623.00
2024-02-26T03:27:47.724Z,622.00
2024-02-26T03:28:47.724Z,621.00
2024-02-26T03:29:47.753Z,621.00
2024-02-26T03:30:47.728Z,622.00
2024-02-26T03:31:47.709Z,624.00
2024-02-26T03:32:47.812Z,620.00
2024-02-26T03:33:47.912Z,624.00
2024-02-26T03:34:47.882Z,619.00
2024-02-26T03:35:47.736Z,621.00
2024-02-26T03:36:47.726Z,623.00
2024-02-26T03:37:47.763Z,622.00
2024-02-26T03:38:47.748Z,625.00
2024-02-26T03:39:47.750Z,626.00
2024-02-26T03:40:47.749Z,621.00
2024-02-26T03:41:47.763Z,625.00
2024-02-26T03:42:47.729Z,627.00
2024-02-26T03:43:47.733Z,625.00
2024-02-26T03:44:47.757Z,624.00
2024-02-26T03:45:47.750Z,623.00
2024-02-26T03:46:47.745Z,626.00
2024-02-26T03:47:47.904Z,628.00
2024-02-26T03:48:47.847Z,624.00
2024-02-26T03:49:47.764Z,622.00
2024-02-26T03:50:47.774Z,628.00
2024-02-26T03:51:47.800Z,625.00
2024-02-26T03:52:47.759Z,626.00
2024-02-26T03:53:47.827Z,627.00
2024-02-26T03:54:48.456Z,623.00
2024-02-26T03:55:47.768Z,625.00
2024-02-26T03:56:47.766Z,622.00
2024-02-26T03:57:47.781Z,626.00
2024-02-26T03:58:47.767Z,627.00
2024-02-26T03:59:47.769Z,626.00
2024-02-26T04:00:47.813Z,626.00
2024-02-26T04:01:47.836Z,622.00
2024-02-26T04:02:47.817Z,625.00
2024-02-26T04:03:47.783Z,625.00
2024-02-26T04:04:47.874Z,625.00
2024-02-26T04:05:47.843Z,627.00
2024-02-26T04:06:47.897Z,626.00
2024-02-26T04:07:47.776Z,627.00
2024-02-26T04:08:47.786Z,623.00
2024-02-26T04:09:47.842Z,626.00
2024-02-26T04:10:47.830Z,624.00
2024-02-26T04:11:47.810Z,627.00
2024-02-26T04:12:47.782Z,628.00
2024-02-26T04:13:47.790Z,625.00
2024-02-26T04:14:48.510Z,626.00
2024-02-26T04:15:47.807Z,626.00
2024-02-26T04:16:47.800Z,625.00
2024-02-26T04:17:47.889Z,623.00
2024-02-26T04:18:47.943Z,627.00
2024-02-26T04:19:47.904Z,625.00
2024-02-26T04:20:47.836Z,623.00
2024-02-26T04:21:47.805Z,624.00
2024-02-26T04:22:47.807Z,628.00
2024-02-26T04:23:47.808Z,625.00
2024-02-26T04:24:47.801Z,624.00
2024-02-26T04:25:47.822Z,627.00
2024-02-26T04:26:47.838Z,625.00
2024-02-26T04:27:47.796Z,623.00
2024-02-26T04:28:47.823Z,626.00
2024-02-26T04:29:47.830Z,625.00
2024-02-26T04:30:47.831Z,627.00
2024-02-26T04:31:47.827Z,623.00
2024-02-26T04:32:47.976Z,629.00
2024-02-26T04:33:48.021Z,628.00
2024-02-26T04:34:47.828Z,625.00
2024-02-26T04:35:47.846Z,628.00
2024-02-26T04:36:47.816Z,627.00
2024-02-26T04:37:47.814Z,628.00
2024-02-26T04:38:47.856Z,627.00
2024-02-26T04:39:50.997Z,626.00
2024-02-26T04:40:47.813Z,627.00
2024-02-26T04:41:47.868Z,627.00
2024-02-26T04:42:47.824Z,628.00
2024-02-26T04:43:47.823Z,630.00
2024-02-26T04:44:47.872Z,631.00
2024-02-26T04:45:47.832Z,627.00
2024-02-26T04:46:55.050Z,600.00
2024-02-26T04:47:56.104Z,600.00
2024-02-26T04:48:58.114Z,600.00
2024-02-26T04:49:56.121Z,600.00
2024-02-26T04:50:56.127Z,600.00
2024-02-26T04:51:56.049Z,600.00
2024-02-26T04:52:56.103Z,600.00
2024-02-26T04:53:56.100Z,600.00
2024-02-26T04:54:56.048Z,603.00
2024-02-26T04:55:56.050Z,602.00
2024-02-26T04:56:56.108Z,601.00
2024-02-26T04:57:56.074Z,600.00
2024-02-26T04:58:56.056Z,602.00
2024-02-26T04:59:56.102Z,602.00
2024-02-26T05:00:56.073Z,601.00
2024-02-26T05:01:56.091Z,602.00
2024-02-26T05:02:56.135Z,600.00
2024-02-26T05:03:56.159Z,600.00
2024-02-26T05:04:56.074Z,605.00
2024-02-26T05:05:56.165Z,600.00
2024-02-26T05:06:56.251Z,602.00
2024-02-26T05:07:56.078Z,601.00
2024-02-26T05:08:56.099Z,603.00
2024-02-26T05:09:56.078Z,600.00
2024-02-26T05:10:56.111Z,603.00
2024-02-26T05:11:56.087Z,602.00
2024-02-26T05:12:56.130Z,600.00
2024-02-26T05:13:56.085Z,603.00
2024-02-26T05:14:56.126Z,603.00
2024-02-26T05:15:56.094Z,600.00
2024-02-26T05:16:56.091Z,603.00
2024-02-26T05:17:56.151Z,604.00
2024-02-26T05:18:56.216Z,601.00
2024-02-26T05:19:56.121Z,604.00
2024-02-26T05:20:56.144Z,603.00
2024-02-26T05:21:56.102Z,601.00
2024-02-26T05:22:56.108Z,601.00
2024-02-26T05:23:56.121Z,602.00
2024-02-26T05:24:56.108Z,604.00
2024-02-26T05:25:56.114Z,604.00
2024-02-26T05:26:56.113Z,601.00
2024-02-26T05:27:56.113Z,605.00
2024-02-26T05:28:56.153Z,603.00
2024-02-26T05:29:56.222Z,604.00
2024-02-26T05:30:56.136Z,605.00
2024-02-26T05:31:56.118Z,604.00
2024-02-26T05:32:56.193Z,603.00
2024-02-26T05:33:56.276Z,606.00
2024-02-26T05:34:56.153Z,604.00
2024-02-26T05:35:56.173Z,604.00
2024-02-26T05:36:56.138Z,608.00
2024-02-26T05:37:56.138Z,607.00
2024-02-26T05:38:56.159Z,604.00
2024-02-26T05:39:56.132Z,604.00
2024-02-26T05:40:56.144Z,606.00
2024-02-26T05:41:56.174Z,603.00
2024-02-26T05:42:56.160Z,604.00
2024-02-26T05:43:56.146Z,601.00
2024-02-26T05:44:56.208Z,605.00
2024-02-26T05:45:56.155Z,601.00
2024-02-26T05:46:56.172Z,603.00
2024-02-26T05:47:56.242Z,602.00
2024-02-26T05:48:56.343Z,606.00
2024-02-26T05:49:56.231Z,606.00
2024-02-26T05:50:56.198Z,601.00
2024-02-26T05:51:56.170Z,604.00
2024-02-26T05:52:56.169Z,604.00
2024-02-26T05:53:56.360Z,606.00
2024-02-26T05:54:56.180Z,606.00
2024-02-26T05:55:56.176Z,604.00
2024-02-26T05:56:56.218Z,606.00
2024-02-26T05:57:56.188Z,607.00
2024-02-26T05:58:56.200Z,609.00
2024-02-26T05:59:56.198Z,608.00
2024-02-26T06:00:56.252Z,610.00
2024-02-26T06:01:56.188Z,609.00
2024-02-26T06:02:56.228Z,612.00
2024-02-26T06:03:56.239Z,610.00
2024-02-26T06:04:56.239Z,612.00
2024-02-26T06:05:56.272Z,611.00
2024-02-26T06:06:56.241Z,613.00
2024-02-26T06:07:56.208Z,614.00
2024-02-26T06:08:56.224Z,612.00
2024-02-26T06:09:56.210Z,613.00
2024-02-26T06:10:56.258Z,613.00
2024-02-26T06:11:56.212Z,614.00
2024-02-26T06:12:56.208Z,617.00
2024-02-26T06:13:56.213Z,619.00
2024-02-26T06:14:56.256Z,614.00
2024-02-26T06:15:56.215Z,613.00
2024-02-26T06:16:56.252Z,612.00
2024-02-26T06:17:56.264Z,613.00
2024-02-26T06:18:56.369Z,614.00
2024-02-26T06:19:56.293Z,610.00
2024-02-26T06:20:56.759Z,612.00
2024-02-26T06:21:56.252Z,612.00
2024-02-26T06:22:56.250Z,614.00
2024-02-26T06:23:56.268Z,616.00
2024-02-26T06:24:56.256Z,616.00
2024-02-26T06:25:56.703Z,621.00
2024-02-26T06:26:56.274Z,623.00
2024-02-26T06:27:56.246Z,628.00
2024-02-26T06:28:56.241Z,629.00
2024-02-26T06:29:58.074Z,635.00
2024-02-26T06:30:56.704Z,641.00
2024-02-26T06:31:56.252Z,642.00
2024-02-26T06:32:56.848Z,643.00
2024-02-26T06:33:56.344Z,646.00
2024-02-26T06:34:56.382Z,652.00
2024-02-26T06:35:56.283Z,662.00
2024-02-26T06:36:56.714Z,664.00
2024-02-26T06:37:56.252Z,667.00
2024-02-26T06:38:56.305Z,668.00
2024-02-26T06:39:56.252Z,676.00
2024-02-26T06:40:56.259Z,673.00
2024-02-26T06:41:56.711Z,677.00
2024-02-26T06:42:56.267Z,677.00
2024-02-26T06:43:56.310Z,688.00
2024-02-26T06:44:56.902Z,693.00
2024-02-26T06:45:56.708Z,710.00
2024-02-26T06:46:56.466Z,706.00
2024-02-26T06:47:56.698Z,706.00
2024-02-26T06:48:56.872Z,724.00
2024-02-26T06:49:56.744Z,741.00
2024-02-26T06:50:57.321Z,731.00
2024-02-26T06:51:56.829Z,765.00
2024-02-26T06:52:57.210Z,783.00
2024-02-26T06:53:56.983Z,778.00
2024-02-26T06:54:57.005Z,802.00
2024-02-26T06:56:00.407Z,814.00
2024-02-26T06:56:57.118Z,815.00
2024-02-26T06:57:57.079Z,821.00
2024-02-26T06:58:57.269Z,842.00
2024-02-26T06:59:57.097Z,882.00
2024-02-26T07:00:57.251Z,953.00
2024-02-26T07:01:57.237Z,999.00
2024-02-26T07:02:57.134Z,1033.00
2024-02-26T07:03:57.278Z,1123.00
2024-02-26T07:04:57.110Z,1189.00
2024-02-26T07:05:57.273Z,1237.00
2024-02-26T07:06:57.207Z,1286.00
2024-02-26T07:07:57.101Z,1330.00
2024-02-26T07:08:57.264Z,1366.00
2024-02-26T07:09:57.103Z,1404.00
2024-02-26T07:10:57.228Z,1438.00
2024-02-26T07:12:00.184Z,1469.00
2024-02-26T07:12:57.112Z,1472.00
2024-02-26T07:13:57.102Z,1484.00
2024-02-26T07:14:57.149Z,1517.00
2024-02-26T07:15:57.221Z,1572.00
2024-02-26T07:16:57.109Z,1672.00
2024-02-26T07:17:57.192Z,1709.00
2024-02-26T07:18:57.169Z,1731.00
2024-02-26T07:19:57.121Z,1764.00
2024-02-26T07:20:57.409Z,1790.00
2024-02-26T07:21:57.223Z,1825.00
2024-02-26T07:22:57.152Z,1851.00
2024-02-26T07:23:57.146Z,1883.00
2024-02-26T07:24:57.122Z,1918.00
2024-02-26T07:25:57.225Z,1939.00
2024-02-26T07:26:57.138Z,1980.00
2024-02-26T07:27:57.129Z,1989.00
2024-02-26T07:28:57.116Z,2019.00
2024-02-26T07:29:57.197Z,2055.00
2024-02-26T07:30:57.737Z,2077.00
2024-02-26T07:31:57.287Z,2117.00
2024-02-26T07:32:57.451Z,2140.00
2024-02-26T07:33:57.616Z,2171.00
2024-02-26T07:34:57.768Z,2096.00
2024-02-26T07:35:57.783Z,2006.00
2024-02-26T07:36:57.665Z,1935.00
2024-02-26T07:37:57.634Z,1931.00
2024-02-26T07:38:58.171Z,1926.00
2024-02-26T07:39:57.757Z,1913.00
2024-02-26T07:41:03.133Z,1910.00
2024-02-26T07:41:57.857Z,1912.00
2024-02-26T07:42:57.840Z,1922.00
2024-02-26T07:43:57.821Z,1940.00
2024-02-26T07:45:01.145Z,1979.00
2024-02-26T07:45:58.248Z,1916.00
2024-02-26T07:46:58.097Z,1937.00
2024-02-26T07:47:57.896Z,1980.00
2024-02-26T07:48:58.051Z,2052.00
2024-02-26T07:49:57.896Z,2160.00
2024-02-26T07:50:58.289Z,2187.00
2024-02-26T07:51:58.805Z,2238.00
2024-02-26T07:52:57.826Z,2253.00
2024-02-26T07:53:57.823Z,2280.00
2024-02-26T07:54:57.804Z,2289.00
2024-02-26T07:55:57.813Z,2301.00
2024-02-26T07:56:57.873Z,2320.00
2024-02-26T07:57:57.800Z,2341.00
2024-02-26T07:58:57.806Z,2354.00
2024-02-26T07:59:57.872Z,2368.00
2024-02-26T08:00:58.306Z,2387.00
2024-02-26T08:01:59.272Z,2397.00
2024-02-26T08:02:58.219Z,2427.00
2024-02-26T08:03:58.173Z,2439.00
2024-02-26T08:04:58.207Z,2450.00
2024-02-26T08:05:58.863Z,2465.00
2024-02-26T08:06:58.528Z,2469.00
2024-02-26T08:07:59.261Z,2472.00
2024-02-26T08:08:58.480Z,2467.00
2024-02-26T08:09:58.484Z,2442.00
2024-02-26T08:10:58.542Z,2400.00
2024-02-26T08:11:58.628Z,2383.00
2024-02-26T08:12:58.540Z,2344.00
2024-02-26T08:13:58.557Z,2323.00
2024-02-26T08:14:58.598Z,2294.00
2024-02-26T08:15:58.755Z,2278.00
2024-02-26T08:16:58.650Z,2262.00
2024-02-26T08:17:58.770Z,2245.00
2024-02-26T08:18:58.807Z,2225.00
2024-02-26T08:19:58.805Z,2222.00
2024-02-26T08:20:59.306Z,2197.00
2024-02-26T08:22:00.403Z,2175.00
2024-02-26T08:22:58.821Z,2172.00
2024-02-26T08:23:58.925Z,2125.00
2024-02-26T08:24:58.840Z,1983.00
2024-02-26T08:25:59.278Z,1843.00
2024-02-26T08:26:58.882Z,1704.00
2024-02-26T08:27:58.831Z,1611.00
2024-02-26T08:28:58.822Z,1535.00
2024-02-26T08:29:59.814Z,1487.00
2024-02-26T08:30:59.323Z,1466.00
2024-02-26T08:31:59.246Z,1458.00
2024-02-26T08:32:58.967Z,1461.00
2024-02-26T08:33:59.461Z,1415.00
2024-02-26T08:34:58.916Z,1351.00
2024-02-26T08:35:59.329Z,1280.00
2024-02-26T08:36:58.885Z,1213.00
2024-02-26T08:37:58.824Z,1135.00
2024-02-26T08:38:58.914Z,1094.00
2024-02-26T08:40:00.845Z,1064.00
2024-02-26T08:40:58.856Z,1042.00
2024-02-26T08:41:59.329Z,1004.00
2024-02-26T08:42:58.825Z,982.00
2024-02-26T08:43:58.838Z,941.00
2024-02-26T08:44:58.839Z,925.00
2024-02-26T08:45:59.327Z,900.00
2024-02-26T08:46:59.310Z,865.00
2024-02-26T08:47:58.986Z,836.00
2024-02-26T08:48:58.945Z,797.00
2024-02-26T08:49:58.893Z,751.00
2024-02-26T08:50:59.312Z,688.00
2024-02-26T08:51:58.844Z,651.00
2024-02-26T08:52:58.901Z,635.00
2024-02-26T08:53:59.415Z,616.00
2024-02-26T08:54:58.896Z,601.00
2024-02-26T08:55:59.295Z,600.00
2024-02-26T08:56:59.362Z,600.00
2024-02-26T08:57:58.857Z,600.00
2024-02-26T08:58:58.863Z,601.00
2024-02-26T08:59:58.894Z,600.00
2024-02-26T09:00:58.888Z,602.00
2024-02-26T09:01:59.275Z,605.00
2024-02-26T09:03:00.155Z,611.00
2024-02-26T09:03:58.909Z,619.00
2024-02-26T09:04:58.944Z,626.00
2024-02-26T09:05:58.929Z,637.00
2024-02-26T09:06:59.263Z,650.00
2024-02-26T09:07:58.885Z,666.00
2024-02-26T09:09:01.502Z,693.00
2024-02-26T09:09:58.880Z,695.00
2024-02-26T09:10:59.427Z,706.00
2024-02-26T09:11:59.348Z,734.00
2024-02-26T09:12:59.017Z,788.00
2024-02-26T09:13:58.886Z,868.00
2024-02-26T09:14:58.933Z,907.00
2024-02-26T09:15:58.884Z,934.00
2024-02-26T09:16:59.275Z,976.00
2024-02-26T09:17:59.116Z,1013.00
2024-02-26T09:18:59.086Z,1050.00
2024-02-26T09:19:58.889Z,1073.00
2024-02-26T09:20:58.900Z,1120.00
2024-02-26T09:21:59.282Z,1151.00
2024-02-26T09:22:58.878Z,1178.00
2024-02-26T09:23:58.943Z,1216.00
2024-02-26T09:24:58.893Z,1244.00
2024-02-26T09:25:58.901Z,1281.00
2024-02-26T09:26:59.307Z,1317.00
2024-02-26T09:27:58.892Z,1344.00
2024-02-26T09:28:59.022Z,1388.00
2024-02-26T09:29:58.939Z,1419.00
2024-02-26T09:31:00.468Z,1455.00
2024-02-26T09:31:59.412Z,1461.00
2024-02-26T09:32:59.448Z,1478.00
2024-02-26T09:34:02.151Z,1499.00
2024-02-26T09:34:59.017Z,1501.00
2024-02-26T09:35:59.014Z,1511.00
2024-02-26T09:37:05.231Z,1545.00
2024-02-26T09:37:59.007Z,1506.00
2024-02-26T09:39:01.606Z,1538.00
2024-02-26T09:39:59.062Z,1510.00
2024-02-26T09:40:59.837Z,1546.00
2024-02-26T09:41:59.242Z,1610.00
2024-02-26T09:42:59.450Z,1703.00
2024-02-26T09:43:59.557Z,1816.00
2024-02-26T09:44:59.317Z,1806.00
2024-02-26T09:46:00.370Z,1810.00
2024-02-26T09:46:59.111Z,1812.00
2024-02-26T09:47:59.153Z,1791.00
2024-02-26T09:48:59.384Z,1780.00
2024-02-26T09:49:59.043Z,1767.00
2024-02-26T09:50:59.349Z,1744.00
2024-02-26T09:51:59.029Z,1735.00
2024-02-26T09:52:59.029Z,1726.00
2024-02-26T09:53:59.045Z,1713.00
2024-02-26T09:54:59.021Z,1698.00
2024-02-26T09:55:59.090Z,1688.00
2024-02-26T09:57:04.213Z,1668.00
2024-02-26T09:57:59.102Z,1670.00
2024-02-26T09:58:59.029Z,1671.00
2024-02-26T09:59:59.066Z,1669.00
2024-02-26T10:00:59.155Z,1649.00
2024-02-26T10:01:59.284Z,1636.00
2024-02-26T10:02:59.073Z,1628.00
2024-02-26T10:03:59.337Z,1601.00
2024-02-26T10:04:59.073Z,1594.00
2024-02-26T10:05:59.367Z,1585.00
2024-02-26T10:06:59.354Z,1570.00
2024-02-26T10:07:59.068Z,1553.00
2024-02-26T10:08:59.063Z,1549.00
2024-02-26T10:09:59.039Z,1539.00
2024-02-26T10:11:00.058Z,1528.00
2024-02-26T10:11:59.397Z,1527.00
2024-02-26T10:12:59.104Z,1515.00
2024-02-26T10:13:59.051Z,1495.00
2024-02-26T10:14:59.063Z,1495.00
2024-02-26T10:15:59.045Z,1484.00
2024-02-26T10:16:59.411Z,1478.00
2024-02-26T10:17:59.117Z,1468.00
2024-02-26T10:19:00.512Z,1452.00
2024-02-26T10:19:59.084Z,1453.00
2024-02-26T10:20:59.099Z,1464.00
2024-02-26T10:22:20.805Z,1454.00
2024-02-26T10:22:59.063Z,1458.00
2024-02-26T10:23:59.461Z,1471.00
2024-02-26T10:24:59.059Z,1483.00
2024-02-26T10:25:59.076Z,1493.00
2024-02-26T10:26:59.070Z,1483.00
2024-02-26T10:27:59.061Z,1474.00
2024-02-26T10:28:59.064Z,1454.00
2024-02-26T10:29:59.383Z,1435.00
2024-02-26T10:30:59.074Z,1417.00
2024-02-26T10:31:59.071Z,1403.00
2024-02-26T10:32:59.350Z,1388.00
2024-02-26T10:34:01.198Z,1378.00
2024-02-26T10:34:59.397Z,1379.00
2024-02-26T10:35:59.350Z,1382.00
2024-02-26T10:36:59.402Z,1362.00
2024-02-26T10:37:59.078Z,1313.00
2024-02-26T10:38:59.186Z,1250.00
2024-02-26T10:39:59.179Z,1191.00
2024-02-26T10:40:59.212Z,1124.00
2024-02-26T10:41:59.336Z,1054.00
2024-02-26T10:42:59.320Z,997.00
2024-02-26T10:43:59.411Z,929.00
2024-02-26T10:44:59.504Z,863.00
2024-02-26T10:45:59.824Z,825.00
2024-02-26T10:46:59.665Z,769.00
2024-02-26T10:47:59.755Z,728.00
2024-02-26T10:48:59.926Z,677.00
2024-02-26T10:49:59.831Z,657.00
2024-02-26T10:50:59.916Z,645.00
2024-02-26T10:52:01.309Z,631.00
2024-02-26T10:52:59.931Z,625.00
2024-02-26T10:54:02.049Z,611.00
2024-02-26T10:55:01.135Z,601.00
2024-02-26T10:56:00.106Z,597.00
2024-02-26T10:57:00.370Z,582.00
2024-02-26T10:58:00.238Z,573.00
2024-02-26T10:59:01.313Z,563.00
2024-02-26T11:00:00.528Z,556.00
2024-02-26T11:01:01.182Z,585.00
2024-02-26T11:02:00.409Z,597.00
2024-02-26T11:03:00.433Z,600.00
2024-02-26T11:04:00.480Z,600.00
2024-02-26T11:05:00.612Z,601.00
2024-02-26T11:06:00.956Z,600.00
2024-02-26T11:07:00.742Z,602.00
2024-02-26T11:08:00.858Z,601.00
2024-02-26T11:09:00.702Z,602.00
2024-02-26T11:10:00.691Z,600.00
2024-02-26T11:11:00.724Z,600.00
2024-02-26T11:12:00.853Z,600.00
2024-02-26T11:13:00.843Z,602.00
2024-02-26T11:14:01.795Z,602.00
2024-02-26T11:15:00.972Z,600.00
2024-02-26T11:16:00.886Z,602.00
2024-02-26T11:17:01.747Z,603.00
2024-02-26T11:18:01.062Z,602.00
2024-02-26T11:19:01.580Z,601.00
2024-02-26T11:20:01.037Z,602.00
2024-02-26T11:21:01.189Z,601.00
2024-02-26T11:22:11.842Z,600.00
2024-02-26T11:23:01.171Z,599.00
2024-02-26T11:24:01.392Z,592.00
2024-02-26T11:25:01.129Z,579.00
2024-02-26T11:26:01.165Z,564.00
2024-02-26T11:27:01.337Z,560.00
2024-02-26T11:28:32.948Z,567.00
2024-02-26T11:29:01.126Z,567.00
2024-02-26T11:30:01.501Z,560.00
2024-02-26T11:31:01.112Z,555.00
2024-02-26T11:32:01.363Z,553.00
2024-02-26T11:33:01.329Z,545.00
2024-02-26T11:34:01.251Z,614.00
2024-02-26T11:35:01.396Z,626.00
2024-02-26T11:36:01.152Z,627.00
2024-02-26T11:37:01.144Z,657.00
2024-02-26T11:38:01.227Z,703.00
2024-02-26T11:39:01.212Z,789.00
2024-02-26T11:40:01.125Z,841.00
2024-02-26T11:41:01.112Z,875.00
2024-02-26T11:42:01.402Z,890.00
2024-02-26T11:43:01.130Z,895.00
2024-02-26T11:44:01.536Z,917.00
2024-02-26T11:45:01.515Z,951.00
2024-02-26T11:46:01.261Z,983.00
2024-02-26T11:47:01.355Z,1013.00
2024-02-26T11:48:01.332Z,1022.00
2024-02-26T11:49:01.351Z,1056.00
2024-02-26T11:50:01.153Z,1085.00
2024-02-26T11:51:01.172Z,1106.00
2024-02-26T11:52:02.381Z,1137.00
2024-02-26T11:53:01.258Z,1171.00
2024-02-26T11:54:01.251Z,1207.00
2024-02-26T11:55:01.155Z,1233.00
2024-02-26T11:56:01.180Z,1262.00
2024-02-26T11:57:01.371Z,1297.00
2024-02-26T11:58:01.229Z,1332.00
2024-02-26T11:59:01.307Z,1387.00
2024-02-26T12:00:01.432Z,1432.00
2024-02-26T12:01:01.745Z,1464.00
2024-02-26T12:02:03.114Z,1497.00
2024-02-26T12:03:01.466Z,1537.00
2024-02-26T12:04:01.288Z,1568.00
2024-02-26T12:05:01.502Z,1575.00
2024-02-26T12:06:01.308Z,1593.00
2024-02-26T12:07:01.624Z,1601.00
2024-02-26T12:08:01.297Z,1601.00
2024-02-26T12:09:01.393Z,1596.00
2024-02-26T12:10:01.296Z,1593.00
2024-02-26T12:11:01.322Z,1589.00
2024-02-26T12:12:01.422Z,1578.00
2024-02-26T12:13:01.407Z,1575.00
2024-02-26T12:14:01.303Z,1566.00
2024-02-26T12:15:01.423Z,1560.00
2024-02-26T12:16:01.516Z,1553.00
2024-02-26T12:17:01.362Z,1546.00
2024-02-26T12:18:01.435Z,1538.00
2024-02-26T12:19:01.369Z,1536.00
2024-02-26T12:20:01.500Z,1518.00
2024-02-26T12:21:01.485Z,1523.00
2024-02-26T12:22:01.360Z,1511.00
2024-02-26T12:23:01.307Z,1487.00
2024-02-26T12:24:01.412Z,1476.00
2024-02-26T12:25:01.449Z,1465.00
2024-02-26T12:26:01.348Z,1479.00
2024-02-26T12:27:01.333Z,1480.00
2024-02-26T12:28:01.305Z,1484.00
2024-02-26T12:29:01.319Z,1505.00
2024-02-26T12:30:01.421Z,1521.00
2024-02-26T12:31:01.546Z,1531.00
2024-02-26T12:32:01.296Z,1602.00
2024-02-26T12:33:01.343Z,1650.00
2024-02-26T12:34:01.529Z,1673.00
2024-02-26T12:35:01.462Z,1683.00
2024-02-26T12:36:01.353Z,1692.00
2024-02-26T12:37:01.360Z,1714.00
2024-02-26T12:38:01.319Z,1732.00
2024-02-26T12:39:01.415Z,1755.00
2024-02-26T12:40:01.415Z,1775.00
2024-02-26T12:41:01.423Z,1797.00
2024-02-26T12:42:01.437Z,1818.00
2024-02-26T12:43:01.305Z,1840.00
2024-02-26T12:44:01.324Z,1856.00
2024-02-26T12:45:01.397Z,1872.00
2024-02-26T12:46:01.364Z,1902.00
2024-02-26T12:47:01.306Z,1926.00
2024-02-26T12:48:01.489Z,1939.00
2024-02-26T12:49:02.938Z,1972.00
2024-02-26T12:50:01.643Z,2008.00
2024-02-26T12:51:01.690Z,2053.00
2024-02-26T12:52:01.729Z,2069.00
2024-02-26T12:53:01.790Z,2105.00
2024-02-26T12:54:01.956Z,2114.00
2024-02-26T12:55:01.905Z,2143.00
2024-02-26T12:56:03.176Z,2151.00
2024-02-26T12:57:02.114Z,2305.00
2024-02-26T12:58:01.966Z,2460.00
2024-02-26T12:59:01.976Z,2486.00
2024-02-26T13:00:02.514Z,2480.00
2024-02-26T13:01:02.014Z,2478.00
2024-02-26T13:02:02.689Z,2441.00
2024-02-26T13:03:02.064Z,2434.00
2024-02-26T13:04:02.245Z,2384.00
2024-02-26T13:05:02.383Z,2362.00
2024-02-26T13:06:02.270Z,2319.00
2024-02-26T13:07:02.461Z,2283.00
2024-02-26T13:08:03.291Z,2247.00
2024-02-26T13:09:02.351Z,2218.00
2024-02-26T13:10:02.333Z,2196.00
2024-02-26T13:11:02.375Z,2163.00
2024-02-26T13:12:02.464Z,2140.00